createdAt,value
2023-02-24T00:00:32.557Z,12.40
2023-02-24T00:03:06.366Z,12.90
2023-02-24T00:05:37.061Z,13.30
2023-02-24T00:08:04.953Z,11.70
2023-02-24T00:10:34.009Z,12.60
2023-02-24T00:13:01.970Z,13.00
2023-02-24T00:15:34.105Z,12.80
2023-02-24T00:18:07.062Z,13.20
2023-02-24T00:20:35.692Z,13.80
2023-02-24T00:23:03.869Z,12.60
2023-02-24T00:25:31.827Z,12.90
2023-02-24T00:28:01.798Z,12.90
2023-02-24T00:30:32.025Z,12.40
2023-02-24T00:33:03.746Z,13.80
2023-02-24T00:35:33.250Z,14.70
2023-02-24T00:38:02.842Z,13.00
2023-02-24T00:40:30.788Z,13.30
2023-02-24T00:43:00.657Z,14.40
2023-02-24T00:45:31.053Z,12.70
2023-02-24T00:47:59.115Z,15.50
2023-02-24T00:50:27.392Z,14.00
2023-02-24T00:52:55.536Z,14.20
2023-02-24T00:55:24.186Z,13.10
2023-02-24T00:57:52.067Z,12.60
2023-02-24T01:00:20.853Z,12.10
2023-02-24T01:02:49.363Z,12.70
2023-02-24T01:05:18.163Z,13.90
2023-02-24T01:07:46.265Z,13.10
2023-02-24T01:10:14.160Z,12.40
2023-02-24T01:12:54.013Z,13.60
2023-02-24T01:15:22.828Z,13.50
2023-02-24T01:17:55.710Z,14.20
2023-02-24T01:20:23.797Z,15.00
2023-02-24T01:22:53.452Z,14.40
2023-02-24T01:25:21.746Z,13.80
2023-02-24T01:27:50.649Z,13.10
2023-02-24T01:30:18.882Z,13.00
2023-02-24T01:32:47.810Z,14.20
2023-02-24T01:35:16.789Z,14.10
2023-02-24T01:37:46.203Z,13.40
2023-02-24T01:40:21.054Z,13.90
2023-02-24T01:42:49.595Z,14.10
2023-02-24T01:45:22.861Z,14.40
2023-02-24T01:47:51.337Z,14.00
2023-02-24T01:50:21.778Z,15.40
2023-02-24T01:52:51.304Z,14.00
2023-02-24T01:55:25.415Z,14.30
2023-02-24T01:57:53.528Z,14.50
2023-02-24T02:00:38.167Z,14.70
2023-02-24T02:03:12.493Z,13.70
2023-02-24T02:05:41.121Z,13.70
2023-02-24T02:08:10.091Z,13.70
2023-02-24T02:10:41.262Z,15.20
2023-02-24T02:13:13.254Z,14.80
2023-02-24T02:15:52.279Z,16.00
2023-02-24T02:19:08.514Z,13.90
2023-02-24T02:22:00.720Z,14.50
2023-02-24T02:24:58.121Z,14.20
2023-02-24T02:27:49.613Z,13.70
2023-02-24T02:30:44.451Z,14.10
2023-02-24T02:33:28.071Z,14.90
2023-02-24T02:36:07.181Z,14.60
2023-02-24T02:38:59.186Z,14.80
2023-02-24T02:41:37.494Z,14.60
2023-02-24T02:44:14.792Z,13.70
2023-02-24T02:46:56.570Z,14.40
2023-02-24T02:49:34.582Z,15.60
2023-02-24T02:52:23.221Z,16.50
2023-02-24T02:54:58.864Z,16.40
2023-02-24T02:57:28.939Z,17.30
2023-02-24T03:00:15.477Z,16.00
2023-02-24T03:02:46.642Z,14.70
2023-02-24T03:05:17.562Z,14.80
2023-02-24T03:07:51.300Z,15.30
2023-02-24T03:10:27.471Z,15.00
2023-02-24T03:12:57.622Z,16.10
2023-02-24T03:15:26.913Z,16.20
2023-02-24T03:17:57.867Z,15.30
2023-02-24T03:20:32.820Z,15.90
2023-02-24T03:23:18.804Z,16.50
2023-02-24T03:25:54.566Z,15.40
2023-02-24T03:28:32.181Z,16.80
2023-02-24T03:31:04.150Z,16.20
2023-02-24T03:33:41.235Z,15.60
2023-02-24T03:36:14.901Z,15.50
2023-02-24T03:38:43.517Z,18.20
2023-02-24T03:41:11.852Z,16.50
2023-02-24T03:43:44.925Z,16.90
2023-02-24T03:46:15.032Z,15.80
2023-02-24T03:48:46.884Z,15.40
2023-02-24T03:51:16.858Z,16.80
2023-02-24T03:54:11.052Z,16.10
2023-02-24T03:56:58.777Z,16.70
2023-02-24T03:59:44.857Z,15.80
2023-02-24T04:02:20.363Z,16.00
2023-02-24T04:05:15.073Z,16.10
2023-02-24T04:08:04.501Z,15.90
2023-02-24T04:10:41.683Z,15.80
2023-02-24T04:13:37.646Z,15.10
2023-02-24T04:16:18.427Z,15.00
2023-02-24T04:18:49.643Z,15.20
2023-02-24T04:21:18.082Z,15.40
2023-02-24T04:23:46.463Z,14.60
2023-02-24T04:26:14.996Z,13.40
2023-02-24T04:28:44.098Z,13.40
2023-02-24T04:31:17.735Z,14.00
2023-02-24T04:33:50.593Z,13.80
2023-02-24T04:36:20.913Z,13.70
2023-02-24T04:38:49.374Z,12.90
2023-02-24T04:41:21.846Z,13.00
2023-02-24T04:43:51.007Z,13.60
2023-02-24T04:46:19.612Z,14.00
2023-02-24T04:48:48.265Z,14.30
2023-02-24T04:51:16.749Z,13.30
2023-02-24T04:53:44.703Z,14.40
2023-02-24T04:56:12.633Z,13.20
2023-02-24T04:58:41.600Z,13.50
2023-02-24T05:01:10.829Z,13.90
2023-02-24T05:03:42.290Z,13.60
2023-02-24T05:06:17.232Z,14.40
2023-02-24T05:08:45.151Z,13.90
2023-02-24T05:11:16.200Z,14.00
2023-02-24T05:13:47.785Z,13.00
2023-02-24T05:16:17.644Z,13.00
2023-02-24T05:18:47.848Z,13.30
2023-02-24T05:21:35.614Z,13.30
2023-02-24T05:24:08.124Z,12.90
2023-02-24T05:26:43.659Z,13.50
2023-02-24T05:29:15.006Z,13.50
2023-02-24T05:31:43.134Z,13.90
2023-02-24T05:34:16.154Z,12.30
2023-02-24T05:36:45.974Z,14.10
2023-02-24T05:39:19.348Z,14.10
2023-02-24T05:41:48.859Z,13.00
2023-02-24T05:44:23.431Z,13.90
2023-02-24T05:46:56.785Z,13.40
2023-02-24T05:49:33.004Z,13.70
2023-02-24T05:52:07.320Z,14.40
2023-02-24T05:54:40.832Z,13.50
2023-02-24T05:57:12.136Z,13.00
2023-02-24T05:59:41.516Z,13.50
2023-02-24T06:02:13.028Z,13.50
2023-02-24T06:04:53.976Z,14.40
2023-02-24T06:07:27.030Z,13.30
2023-02-24T06:09:57.984Z,14.50
2023-02-24T06:12:28.838Z,14.00
2023-02-24T06:14:58.285Z,13.70
2023-02-24T06:17:26.751Z,12.60
2023-02-24T06:19:54.873Z,13.40
2023-02-24T06:22:24.989Z,13.60
2023-02-24T06:24:57.517Z,12.70
2023-02-24T06:27:25.769Z,13.90
2023-02-24T06:29:54.652Z,13.90
2023-02-24T06:32:25.687Z,13.10
2023-02-24T06:34:54.808Z,12.20
2023-02-24T06:37:23.101Z,13.50
2023-02-24T06:39:51.831Z,13.70
2023-02-24T06:42:20.289Z,14.60
2023-02-24T06:44:50.534Z,13.90
2023-02-24T06:47:19.188Z,14.60
2023-02-24T06:49:48.075Z,14.70
2023-02-24T06:52:19.076Z,13.60
2023-02-24T06:54:49.011Z,13.90
2023-02-24T06:57:17.812Z,13.80
2023-02-24T06:59:46.425Z,15.20
2023-02-24T07:02:16.770Z,13.70
2023-02-24T07:04:44.956Z,14.10
2023-02-24T07:07:14.499Z,14.90
2023-02-24T07:09:44.088Z,13.80
2023-02-24T07:12:12.679Z,13.80
2023-02-24T07:14:40.970Z,13.80
2023-02-24T07:17:09.069Z,14.00
2023-02-24T07:19:37.397Z,13.90
2023-02-24T07:22:05.310Z,14.60
2023-02-24T07:24:39.281Z,15.40
2023-02-24T07:27:12.163Z,15.10
2023-02-24T07:29:40.567Z,13.60
2023-02-24T07:32:09.311Z,13.60
2023-02-24T07:34:40.906Z,14.20
2023-02-24T07:37:10.561Z,13.70
2023-02-24T07:39:39.593Z,14.50
2023-02-24T07:42:10.317Z,14.70
2023-02-24T07:44:46.773Z,14.00
2023-02-24T07:47:17.961Z,13.20
2023-02-24T07:49:46.078Z,14.50
2023-02-24T07:52:14.156Z,15.00
2023-02-24T07:54:45.744Z,15.50
2023-02-24T07:57:14.468Z,23.10
2023-02-24T07:59:45.692Z,17.60
2023-02-24T08:02:15.692Z,17.10
2023-02-24T08:04:50.395Z,17.90
2023-02-24T08:07:24.936Z,15.00
2023-02-24T08:10:14.606Z,17.40
2023-02-24T08:12:43.058Z,16.70
2023-02-24T08:15:17.840Z,16.80
2023-02-24T08:17:47.586Z,14.20
2023-02-24T08:20:16.508Z,15.90
2023-02-24T08:22:46.980Z,17.60
2023-02-24T08:25:19.019Z,18.30
2023-02-24T08:28:06.891Z,18.00
2023-02-24T08:30:45.876Z,15.70
2023-02-24T08:33:20.066Z,14.30
2023-02-24T08:35:52.564Z,14.90
2023-02-24T08:38:25.279Z,15.10
2023-02-24T08:40:55.884Z,14.00
2023-02-24T08:43:30.088Z,13.80
2023-02-24T08:46:21.402Z,13.70
2023-02-24T08:48:55.706Z,15.80
2023-02-24T08:51:35.090Z,18.40
2023-02-24T08:54:15.595Z,17.40
2023-02-24T08:56:49.145Z,15.00
2023-02-24T08:59:38.002Z,15.90
2023-02-24T09:02:37.430Z,15.40
2023-02-24T09:07:43.100Z,14.10
2023-02-24T09:10:18.023Z,15.10
2023-02-24T09:12:49.334Z,14.90
2023-02-24T09:15:17.904Z,15.90
2023-02-24T09:17:47.288Z,15.80
2023-02-24T09:20:43.730Z,14.20
2023-02-24T09:23:20.320Z,15.40
2023-02-24T09:25:54.428Z,15.30
2023-02-24T09:28:26.764Z,14.60
2023-02-24T09:30:59.226Z,16.90
2023-02-24T09:33:41.500Z,14.40
2023-02-24T09:36:30.224Z,13.50
2023-02-24T09:38:59.475Z,16.50
2023-02-24T09:41:54.875Z,17.70
2023-02-24T09:44:36.884Z,15.30
2023-02-24T09:47:14.096Z,16.10
2023-02-24T09:49:56.393Z,17.00
2023-02-24T09:52:41.016Z,14.80
2023-02-24T09:55:25.734Z,17.50
2023-02-24T09:58:34.726Z,16.40
2023-02-24T10:01:31.192Z,15.00
2023-02-24T10:04:20.237Z,16.90
2023-02-24T10:06:51.156Z,15.00
2023-02-24T10:09:34.981Z,14.10
2023-02-24T10:12:24.216Z,16.90
2023-02-24T10:15:16.384Z,14.60
2023-02-24T10:18:06.778Z,14.70
2023-02-24T10:20:45.636Z,16.40
2023-02-24T10:23:14.141Z,16.50
2023-02-24T10:25:57.368Z,15.40
2023-02-24T10:28:41.864Z,15.00
2023-02-24T10:31:10.921Z,16.90
2023-02-24T10:33:45.566Z,16.90
2023-02-24T10:36:17.414Z,18.20
2023-02-24T10:38:45.641Z,16.90
2023-02-24T10:41:14.623Z,16.40
2023-02-24T10:43:54.134Z,16.20
2023-02-24T10:46:40.224Z,16.00
2023-02-24T10:49:10.190Z,17.70
2023-02-24T10:51:44.801Z,16.80
2023-02-24T10:54:25.039Z,16.10
2023-02-24T10:57:00.828Z,18.60
2023-02-24T10:59:48.462Z,14.90
2023-02-24T11:02:37.346Z,16.60
2023-02-24T11:05:38.390Z,16.90
2023-02-24T11:08:36.759Z,15.60
2023-02-24T11:11:30.031Z,14.90
2023-02-24T11:14:18.218Z,14.90
2023-02-24T11:17:08.785Z,15.70
2023-02-24T11:20:11.141Z,16.50
2023-02-24T11:22:42.078Z,15.30
2023-02-24T11:25:17.396Z,15.40
2023-02-24T11:27:45.341Z,16.40
2023-02-24T11:30:42.105Z,15.80
2023-02-24T11:33:26.317Z,17.70
2023-02-24T11:36:00.543Z,16.90
2023-02-24T11:38:42.649Z,15.40
2023-02-24T11:41:26.422Z,16.30
2023-02-24T11:44:25.951Z,15.20
2023-02-24T11:47:00.704Z,15.00
2023-02-24T11:49:38.758Z,15.80
2023-02-24T11:54:44.092Z,14.80
2023-02-24T11:57:35.349Z,16.00
2023-02-24T12:00:24.746Z,15.20
2023-02-24T12:03:13.182Z,14.60
2023-02-24T12:05:45.405Z,14.00
2023-02-24T12:08:26.044Z,13.60
2023-02-24T12:11:11.696Z,13.90
2023-02-24T12:13:48.506Z,14.20
2023-02-24T12:16:33.308Z,13.10
2023-02-24T12:19:06.605Z,13.10
2023-02-24T12:21:43.638Z,13.40
2023-02-24T12:24:12.644Z,13.60
2023-02-24T12:27:01.391Z,13.40
2023-02-24T12:29:35.496Z,13.30
2023-02-24T12:33:01.858Z,14.70
2023-02-24T12:35:44.659Z,13.60
2023-02-24T12:38:50.727Z,13.10
2023-02-24T12:41:48.351Z,13.40
2023-02-24T12:44:22.263Z,14.30
2023-02-24T12:47:27.151Z,12.90
2023-02-24T12:50:18.027Z,14.00
2023-02-24T12:53:17.537Z,12.70
2023-02-24T12:58:37.136Z,13.60
2023-02-24T13:01:09.377Z,12.60
2023-02-24T13:03:53.464Z,13.20
2023-02-24T13:06:32.932Z,13.50
2023-02-24T13:09:24.249Z,12.40
2023-02-24T13:12:13.874Z,12.40
2023-02-24T13:14:42.302Z,12.90
2023-02-24T13:17:10.523Z,12.60
2023-02-24T13:19:40.289Z,12.10
2023-02-24T13:22:14.162Z,12.50
2023-02-24T13:24:43.515Z,13.50
2023-02-24T13:27:33.720Z,13.00
2023-02-24T13:30:20.104Z,13.10
2023-02-24T13:32:58.251Z,13.00
2023-02-24T13:35:26.990Z,12.40
2023-02-24T13:37:55.094Z,13.10
2023-02-24T13:40:28.211Z,12.60
2023-02-24T13:42:56.600Z,12.90
2023-02-24T13:45:30.269Z,12.40
2023-02-24T13:48:20.398Z,11.80
2023-02-24T13:50:54.798Z,13.00
2023-02-24T13:53:52.919Z,13.40
2023-02-24T13:56:24.016Z,12.40
2023-02-24T13:59:13.874Z,13.10
2023-02-24T14:01:47.238Z,13.80
2023-02-24T14:04:24.707Z,13.90
2023-02-24T14:06:55.052Z,14.40
2023-02-24T14:09:28.655Z,14.90
2023-02-24T14:12:01.380Z,15.80
2023-02-24T14:14:29.736Z,17.20
2023-02-24T14:16:58.072Z,16.80
2023-02-24T14:19:26.529Z,18.90
2023-02-24T14:21:59.160Z,17.80
2023-02-24T14:24:27.542Z,19.20
2023-02-24T14:26:58.849Z,19.60
2023-02-24T14:29:34.050Z,20.30
2023-02-24T14:32:03.251Z,21.70
2023-02-24T14:34:31.385Z,23.20
2023-02-24T14:37:02.316Z,23.20
2023-02-24T14:39:31.505Z,22.60
2023-02-24T14:42:09.610Z,22.80
2023-02-24T14:44:45.711Z,22.40
2023-02-24T14:47:14.461Z,22.80
2023-02-24T14:49:42.848Z,23.40
2023-02-24T14:52:37.644Z,23.60
2023-02-24T14:55:15.865Z,23.20
2023-02-24T14:57:56.412Z,23.40
2023-02-24T15:00:45.552Z,22.30
2023-02-24T15:03:33.964Z,23.80
2023-02-24T15:06:07.238Z,24.40
2023-02-24T15:08:42.841Z,23.40
2023-02-24T15:11:16.763Z,24.30
2023-02-24T15:13:50.590Z,24.00
2023-02-24T15:16:44.205Z,23.50
2023-02-24T15:19:27.365Z,23.20
2023-02-24T15:21:55.371Z,23.00
2023-02-24T15:24:31.237Z,23.60
2023-02-24T15:27:26.437Z,22.70
2023-02-24T15:30:01.086Z,23.80
2023-02-24T15:32:33.686Z,23.50
2023-02-24T15:35:01.931Z,23.60
2023-02-24T15:37:41.928Z,23.90
2023-02-24T15:40:21.751Z,22.20
2023-02-24T15:42:51.274Z,24.30
2023-02-24T15:45:31.049Z,24.20
2023-02-24T15:48:00.523Z,23.00
2023-02-24T15:50:29.067Z,24.70
2023-02-24T15:52:59.699Z,23.90
2023-02-24T15:55:28.552Z,23.00
2023-02-24T15:58:01.668Z,23.10
2023-02-24T16:00:31.146Z,24.70
2023-02-24T16:02:59.246Z,23.70
2023-02-24T16:05:27.189Z,25.70
2023-02-24T16:07:55.339Z,23.30
2023-02-24T16:10:24.823Z,24.70
2023-02-24T16:12:57.770Z,25.00
2023-02-24T16:15:34.042Z,24.90
2023-02-24T16:18:04.564Z,24.50
2023-02-24T16:20:39.754Z,25.10
2023-02-24T16:23:07.888Z,24.40
2023-02-24T16:25:41.783Z,22.80
2023-02-24T16:28:16.877Z,22.30
2023-02-24T16:30:44.878Z,22.20
2023-02-24T16:33:13.641Z,21.60
2023-02-24T16:35:45.609Z,21.60
2023-02-24T16:38:15.542Z,20.80
2023-02-24T16:40:45.028Z,21.00
2023-02-24T16:43:13.913Z,19.00
2023-02-24T16:45:43.722Z,20.30
2023-02-24T16:48:22.935Z,20.00
2023-02-24T16:50:50.904Z,20.00
2023-02-24T16:53:22.760Z,19.20
2023-02-24T16:55:51.019Z,19.00
2023-02-24T16:58:19.382Z,19.60
2023-02-24T17:00:49.043Z,21.90
2023-02-24T17:03:22.910Z,61.10
2023-02-24T17:05:51.242Z,27.40
2023-02-24T17:08:19.703Z,53.70
2023-02-24T17:10:49.511Z,27.50
2023-02-24T17:13:19.466Z,21.30
2023-02-24T17:15:55.135Z,20.40
2023-02-24T17:18:24.155Z,18.70
2023-02-24T17:20:52.286Z,20.20
2023-02-24T17:23:22.165Z,18.50
2023-02-24T17:25:52.948Z,17.60
2023-02-24T17:28:21.943Z,19.00
2023-02-24T17:30:49.909Z,21.90
2023-02-24T17:33:18.002Z,32.90
2023-02-24T17:35:47.473Z,37.40
2023-02-24T17:38:18.058Z,67.30
2023-02-24T17:40:48.485Z,42.10
2023-02-24T17:43:16.587Z,42.90
2023-02-24T17:45:46.821Z,40.30
2023-02-24T17:48:15.011Z,39.20
2023-02-24T17:50:47.796Z,26.10
2023-02-24T17:53:17.280Z,22.60
2023-02-24T17:56:01.329Z,21.80
2023-02-24T17:58:29.885Z,24.00
2023-02-24T18:00:57.807Z,21.60
2023-02-24T18:03:27.001Z,22.40
2023-02-24T18:06:10.500Z,22.00
2023-02-24T18:08:38.676Z,21.50
2023-02-24T18:11:07.448Z,20.30
2023-02-24T18:13:39.609Z,21.40
2023-02-24T18:16:10.261Z,20.10
2023-02-24T18:18:38.516Z,20.30
2023-02-24T18:21:08.592Z,19.60
2023-02-24T18:23:38.309Z,21.60
2023-02-24T18:26:11.301Z,18.20
2023-02-24T18:28:41.015Z,18.60
2023-02-24T18:31:10.974Z,19.10
2023-02-24T18:33:39.713Z,19.20
2023-02-24T18:36:08.609Z,18.70
2023-02-24T18:38:37.752Z,17.70
2023-02-24T18:41:10.689Z,17.70
2023-02-24T18:43:39.237Z,17.00
2023-02-24T18:46:08.908Z,19.10
2023-02-24T18:48:37.643Z,18.90
2023-02-24T18:51:05.847Z,19.00
2023-02-24T18:53:38.181Z,18.50
2023-02-24T18:56:11.334Z,20.00
2023-02-24T18:58:40.791Z,20.50
2023-02-24T19:01:19.773Z,18.20
2023-02-24T19:03:50.520Z,16.60
2023-02-24T19:06:19.375Z,15.40
2023-02-24T19:08:48.118Z,15.50
2023-02-24T19:11:20.422Z,15.00
2023-02-24T19:13:48.892Z,15.20
2023-02-24T19:16:17.100Z,16.20
2023-02-24T19:18:51.090Z,14.70
2023-02-24T19:21:20.783Z,16.00
2023-02-24T19:23:50.402Z,14.60
2023-02-24T19:26:20.474Z,14.80
2023-02-24T19:28:48.655Z,15.30
2023-02-24T19:31:21.931Z,14.90
2023-02-24T19:33:57.054Z,14.00
2023-02-24T19:36:25.361Z,15.10
2023-02-24T19:38:53.746Z,14.60
2023-02-24T19:41:21.681Z,13.70
2023-02-24T19:43:53.136Z,13.50
2023-02-24T19:46:21.779Z,13.80
2023-02-24T19:48:50.130Z,13.60
2023-02-24T19:51:22.552Z,13.40
2023-02-24T19:53:54.934Z,14.00
2023-02-24T19:56:25.018Z,14.20
2023-02-24T19:58:57.033Z,13.40
2023-02-24T20:01:25.545Z,12.70
2023-02-24T20:03:54.966Z,12.80
2023-02-24T20:06:29.237Z,13.00
2023-02-24T20:09:00.668Z,12.80
2023-02-24T20:11:32.929Z,13.40
2023-02-24T20:14:00.806Z,12.50
2023-02-24T20:16:32.685Z,11.50
2023-02-24T20:19:09.443Z,11.60
2023-02-24T20:21:41.267Z,12.20
2023-02-24T20:24:13.603Z,11.10
2023-02-24T20:26:46.238Z,12.30
2023-02-24T20:29:15.461Z,11.70
2023-02-24T20:31:46.604Z,12.30
2023-02-24T20:34:16.648Z,11.10
2023-02-24T20:36:45.680Z,11.90
2023-02-24T20:39:13.636Z,12.40
2023-02-24T20:41:41.684Z,12.00
2023-02-24T20:44:10.649Z,12.50
2023-02-24T20:46:39.095Z,12.50
2023-02-24T20:49:08.888Z,12.20
2023-02-24T20:51:37.538Z,12.00
2023-02-24T20:54:07.835Z,18.80
2023-02-24T20:56:37.996Z,13.50
2023-02-24T20:59:07.977Z,12.70
2023-02-24T21:01:36.841Z,11.70
2023-02-24T21:04:05.242Z,12.00
2023-02-24T21:06:33.338Z,11.70
2023-02-24T21:09:01.289Z,11.40
2023-02-24T21:11:30.294Z,11.10
2023-02-24T21:13:58.364Z,11.60
2023-02-24T21:16:27.174Z,10.70
2023-02-24T21:18:56.403Z,11.60
2023-02-24T21:21:24.993Z,11.70
2023-02-24T21:23:53.076Z,11.40
2023-02-24T21:26:21.504Z,12.60
2023-02-24T21:28:56.157Z,12.40
2023-02-24T21:31:25.551Z,13.00
2023-02-24T21:33:54.071Z,12.30
2023-02-24T21:36:25.740Z,12.10
2023-02-24T21:38:54.280Z,12.10
2023-02-24T21:41:22.222Z,12.30
2023-02-24T21:43:55.038Z,12.80
2023-02-24T21:46:28.676Z,11.70
2023-02-24T21:48:58.288Z,12.80
2023-02-24T21:51:26.839Z,12.40
2023-02-24T21:53:55.657Z,12.50
2023-02-24T21:56:28.073Z,12.20
2023-02-24T21:59:02.472Z,12.10
2023-02-24T22:01:38.163Z,12.10
2023-02-24T22:04:08.231Z,12.30
2023-02-24T22:06:37.587Z,13.40
2023-02-24T22:09:07.508Z,11.50
2023-02-24T22:11:42.151Z,12.20
2023-02-24T22:14:13.697Z,13.30
2023-02-24T22:16:42.245Z,12.40
2023-02-24T22:19:11.133Z,13.00
2023-02-24T22:21:41.457Z,12.90
2023-02-24T22:24:14.472Z,12.90
2023-02-24T22:26:42.778Z,12.80
2023-02-24T22:29:10.729Z,12.20
2023-02-24T22:31:39.655Z,13.10
2023-02-24T22:34:09.012Z,12.70
2023-02-24T22:36:37.591Z,11.70
2023-02-24T22:39:06.473Z,12.10
2023-02-24T22:41:34.808Z,12.60
2023-02-24T22:44:04.103Z,13.00
2023-02-24T22:46:34.718Z,12.90
2023-02-24T22:49:04.234Z,12.70
2023-02-24T22:51:32.271Z,11.80
2023-02-24T22:54:00.262Z,12.60
2023-02-24T22:56:29.883Z,12.80
2023-02-24T22:58:58.369Z,13.10
2023-02-24T23:01:28.491Z,12.60
2023-02-24T23:03:59.086Z,12.80
2023-02-24T23:06:27.116Z,12.90
2023-02-24T23:08:56.970Z,12.60
2023-02-24T23:11:33.763Z,13.20
2023-02-24T23:14:03.675Z,13.80
2023-02-24T23:16:33.109Z,14.10
2023-02-24T23:19:07.524Z,14.40
2023-02-24T23:21:57.117Z,13.90
2023-02-24T23:24:25.921Z,14.00
2023-02-24T23:26:54.499Z,14.50
2023-02-24T23:29:24.246Z,13.20
2023-02-24T23:31:52.818Z,13.80
2023-02-24T23:34:21.161Z,14.10
2023-02-24T23:36:49.461Z,16.40
2023-02-24T23:39:23.993Z,13.40
2023-02-24T23:41:56.735Z,14.50
2023-02-24T23:44:25.341Z,15.20
2023-02-24T23:46:53.484Z,14.90
2023-02-24T23:49:23.654Z,15.90
2023-02-24T23:51:51.789Z,15.60
2023-02-24T23:54:20.387Z,14.70
2023-02-24T23:56:48.423Z,11.80
2023-02-24T23:59:25.901Z,15.40
